KBDL/BDL METAR and TAF weather

Enter ICAO airport designator
Station Type Date Time Source
KBDL METAR 2021/09/23 16:51 UTC NOAA

KBDL 231651Z 16021G26KT 10SM SCT033 BKN045 BKN075 28/19 A3001 RMK AO2 PK WND 17027/1630 SLP159 T02780194


Station Type Date Time Source
KBDL Decoded METAR 2021/09/23 16:51 UTC NOAA

BRADLEY INTERNATIONAL AIRPORT , CT, United States (KBDL) 41-56N 072-41W 60M
Sep 23, 2021 - 12:51 PM EDT / 2021.09.23 1651 UTC
Wind: from the SSE (160 degrees) at 24 MPH (21 KT) gusting to 30 MPH (26 KT):0
Visibility: 10 mile(s):0
Sky conditions: mostly cloudy
Temperature: 82.0 F (27.8 C)
Dew Point: 66.9 F (19.4 C)
Relative Humidity: 60%
Pressure (altimeter): 30.01 in. Hg (1016 hPa)
ob: KBDL 231651Z 16021G26KT 10SM SCT033 BKN045 BKN075 28/19 A3001 RMK AO2 PK WND 17027/1630 SLP159 T02780194
cycle: 17

Station Type Date Time Source
KBDL TAF 2021/09/23 15:09 UTC NOAA

TAF
AMD KBDL 231506Z 2315/2418 15016G24KT P6SM FEW025 BKN070
FM240200 15014KT 6SM BR VCSH OVC025
FM241200 17009KT 3SM +SHRA BR OVC015
FM241400 20007KT 3SM BR VCSH OVC015
FM241700 21005KT 6SM BR VCSH OVC025

Example: see airport list